4XS0 weather

Public forecast

Using degrees Fahrenheit for public forecast. Weather courtesy of forecast.io.

Closest aviation weather report (METAR) to Pfeffer & Son Farms Airport

Closest report is Houston Executive Airport, 8.1 nm (15.0 km) SSE. Retrieved 2020/08/14 01:35 UTC (21 minutes ago):

KTME 140135Z AUTO 19010KT 10SM 31/24 A2992 RMK AO2

Closest aviation forecast (TAF) to Pfeffer & Son Farms Airport

Forecast is more than 12 hours old.

Closest forecast is David Wayne Hooks Memorial Airport, 22.8 nm (42.2 km) ENE. Retrieved 2017/02/07 12:51 UTC (4 years ago):

TAF KDWH 071148Z 0712/0812 20009G15KT P6SM SCT022 OVC030 TEMPO 0712/0715 BKN018 FM071500 23010KT P6SM BKN015 FM071900 25010KT P6SM SCT025 FM080100 22005KT P6SM SCT250 TEMPO 0807/0809 3SM BR BKN013 FM080900 VRB03KT 2SM BR OVC008